Time;durP1;ratioP1;P1;durP2;ratioP2;P2;SDS_P1;SDS_P2;PMS_P1;PMS_P2;Temp;Humidity;BMP_temperature;BMP_pressure;BME280_temperature;BME280_humidity;BME280_pressure;Samples;Min_cycle;Max_cycle;Signal;HPM_P1;HPM_P2
2023/07/19 00:01:29;;;;;;;8.15;0.93;;;;;;;;;;5085226;28;20503;-73
2023/07/19 00:04:00;;;;;;;4.20;0.95;;;;;;;;;;5085222;28;20506;-73
2023/07/19 00:06:31;;;;;;;4.85;0.60;;;;;;;;;;5083552;28;20052;-73
2023/07/19 00:09:02;;;;;;;9.57;1.35;;;;;;;;;;5077551;28;20609;-73
2023/07/19 00:11:32;;;;;;;4.03;0.95;;;;;;;;;;5062959;28;20055;-74
2023/07/19 00:14:05;;;;;;;3.15;1.00;;;;;;;;;;5064811;28;20045;-72
2023/07/19 00:16:36;;;;;;;3.42;0.85;;;;;;;;;;5065024;28;20526;-73
2023/07/19 00:19:07;;;;;;;2.60;0.95;;;;;;;;;;5063489;28;20044;-74
2023/07/19 00:21:49;;;;;;;5.28;1.02;;;;;;;;;;5064093;28;20055;-73
2023/07/19 00:24:19;;;;;;;8.07;1.75;;;;;;;;;;5064305;28;20066;-72
2023/07/19 00:26:50;;;;;;;2.88;0.95;;;;;;;;;;5064465;28;20052;-74
2023/07/19 00:29:21;;;;;;;8.02;1.67;;;;;;;;;;5064943;28;20044;-74
2023/07/19 00:31:51;;;;;;;5.32;2.03;;;;;;;;;;5064738;28;20052;-74
2023/07/19 00:34:22;;;;;;;9.80;1.60;;;;;;;;;;5065266;28;20474;-73
2023/07/19 00:36:54;;;;;;;6.13;1.10;;;;;;;;;;5068899;28;20051;-72
2023/07/19 00:39:26;;;;;;;3.88;1.08;;;;;;;;;;5084817;28;20048;-72
2023/07/19 00:41:57;;;;;;;5.97;1.35;;;;;;;;;;5083907;28;20036;-72
2023/07/19 00:44:28;;;;;;;6.30;1.20;;;;;;;;;;5083218;28;20048;-72
2023/07/19 00:47:02;;;;;;;4.53;1.20;;;;;;;;;;5087497;28;20471;-72
2023/07/19 00:49:37;;;;;;;2.08;0.82;;;;;;;;;;5085816;28;20055;-71
2023/07/19 00:52:09;;;;;;;3.25;1.13;;;;;;;;;;5088285;28;20066;-72
2023/07/19 00:54:39;;;;;;;4.35;1.05;;;;;;;;;;5087823;28;20040;-72
2023/07/19 00:57:10;;;;;;;5.35;1.00;;;;;;;;;;5087516;28;20048;-72
2023/07/19 00:59:40;;;;;;;;;;;;;;;;;;5088858;28;20055;-72
2023/07/19 01:02:13;;;;;;;5.45;1.42;;;;;;;;;;5088759;28;19924;-73
2023/07/19 01:04:45;;;;;;;5.22;1.52;;;;;;;;;;5088342;28;20048;-73
2023/07/19 01:07:17;;;;;;;3.95;1.63;;;;;;;;;;5088951;28;20044;-72
2023/07/19 01:09:49;;;;;;;10.73;1.70;;;;;;;;;;5088248;28;20051;-72
2023/07/19 01:12:19;;;;;;;5.75;1.50;;;;;;;;;;5087965;28;20040;-73
2023/07/19 01:14:51;;;;;;;6.10;1.20;;;;;;;;;;5088259;28;20407;-73
2023/07/19 01:17:22;;;;;;;2.58;1.42;;;;;;;;;;5086266;28;20059;-72
2023/07/19 01:19:53;;;;;;;7.85;1.90;;;;;;;;;;5088243;28;20039;-72
2023/07/19 01:22:23;;;;;;;;;;;;;;;;;;5089360;28;20040;-72
2023/07/19 01:24:55;;;;;;;3.58;1.17;;;;;;;;;;5088548;28;19923;-72
2023/07/19 01:27:26;;;;;;;4.97;1.80;;;;;;;;;;5088326;28;20051;-72
2023/07/19 01:29:56;;;;;;;3.50;1.73;;;;;;;;;;5088003;28;20044;-72
2023/07/19 01:32:27;;;;;;;2.72;1.30;;;;;;;;;;5085629;28;20048;-72
2023/07/19 01:34:58;;;;;;;6.13;1.92;;;;;;;;;;5088070;28;20054;-72
2023/07/19 01:37:30;;;;;;;5.82;1.95;;;;;;;;;;5069135;28;20056;-72
2023/07/19 01:40:07;;;;;;;7.43;2.10;;;;;;;;;;5086510;28;20056;-73
2023/07/19 01:42:39;;;;;;;3.17;1.65;;;;;;;;;;5086567;28;20052;-73
2023/07/19 01:45:10;;;;;;;8.35;1.85;;;;;;;;;;5086287;28;21114;-72
2023/07/19 01:47:46;;;;;;;3.88;1.25;;;;;;;;;;5087761;28;20074;-73
2023/07/19 01:50:16;;;;;;;;;;;;;;;;;;5088380;28;20048;-72
2023/07/19 01:52:48;;;;;;;5.78;0.90;;;;;;;;;;5087765;28;20312;-73
2023/07/19 01:55:18;;;;;;;5.55;1.33;;;;;;;;;;5088256;28;20052;-73
2023/07/19 01:57:49;;;;;;;3.53;1.33;;;;;;;;;;5085259;28;20048;-72
2023/07/19 02:00:20;;;;;;;8.50;1.13;;;;;;;;;;5086025;28;20063;-73
2023/07/19 02:02:50;;;;;;;4.15;2.08;;;;;;;;;;5084923;28;20048;-72
2023/07/19 02:05:21;;;;;;;6.40;1.50;;;;;;;;;;5087344;28;20600;-72
2023/07/19 02:07:52;;;;;;;8.20;2.67;;;;;;;;;;5085309;28;20418;-73
2023/07/19 02:10:23;;;;;;;9.30;2.70;;;;;;;;;;5087900;28;20051;-73
2023/07/19 02:12:54;;;;;;;6.30;2.55;;;;;;;;;;5087010;28;20051;-73
2023/07/19 02:15:25;;;;;;;4.63;2.00;;;;;;;;;;5085978;28;20063;-73
2023/07/19 02:17:56;;;;;;;6.20;2.17;;;;;;;;;;5087452;28;20590;-73
2023/07/19 02:20:26;;;;;;;3.47;1.77;;;;;;;;;;5086958;28;20047;-72
2023/07/19 02:22:56;;;;;;;7.95;2.13;;;;;;;;;;5085366;28;20051;-72
2023/07/19 02:25:28;;;;;;;5.90;1.77;;;;;;;;;;5086759;28;20063;-72
2023/07/19 02:27:59;;;;;;;3.58;1.38;;;;;;;;;;5087134;28;20083;-72
2023/07/19 02:30:32;;;;;;;8.95;1.35;;;;;;;;;;5087405;28;20051;-72
2023/07/19 02:33:02;;;;;;;3.80;1.30;;;;;;;;;;5084460;28;20063;-72
2023/07/19 02:35:31;;;;;;;;;;;;;;;;;;5085065;28;20056;-74
2023/07/19 02:38:02;;;;;;;2.03;0.93;;;;;;;;;;5084954;28;19924;-72
2023/07/19 02:40:34;;;;;;;3.25;1.13;;;;;;;;;;5085474;28;20059;-72
2023/07/19 02:43:06;;;;;;;3.20;1.20;;;;;;;;;;5086596;28;20063;-72
2023/07/19 02:45:38;;;;;;;4.60;0.90;;;;;;;;;;5087113;28;20050;-72
2023/07/19 02:48:08;;;;;;;2.90;1.00;;;;;;;;;;5086762;28;20430;-72
2023/07/19 02:50:45;;;;;;;6.65;1.38;;;;;;;;;;5086528;28;20059;-72
2023/07/19 02:53:17;;;;;;;3.28;1.30;;;;;;;;;;5086509;28;20055;-72
2023/07/19 02:55:47;;;;;;;13.07;5.05;;;;;;;;;;5084180;28;20048;-73
2023/07/19 02:58:17;;;;;;;6.30;1.73;;;;;;;;;;5086936;28;20770;-72
2023/07/19 03:00:48;;;;;;;7.10;1.67;;;;;;;;;;5085209;28;20052;-72
2023/07/19 03:03:18;;;;;;;4.97;2.17;;;;;;;;;;5086122;28;20052;-73
2023/07/19 03:05:49;;;;;;;2.65;1.48;;;;;;;;;;5084435;28;20059;-72
2023/07/19 03:08:19;;;;;;;5.07;2.00;;;;;;;;;;5083315;28;20059;-72
2023/07/19 03:10:55;;;;;;;3.55;1.95;;;;;;;;;;5086656;28;20044;-73
2023/07/19 03:13:26;;;;;;;5.25;1.75;;;;;;;;;;5085129;28;20047;-72
2023/07/19 03:15:58;;;;;;;6.03;1.75;;;;;;;;;;5084145;28;20048;-72
2023/07/19 03:18:29;;;;;;;4.28;1.52;;;;;;;;;;5085018;28;20056;-72
2023/07/19 03:21:01;;;;;;;7.70;1.67;;;;;;;;;;5086065;28;20400;-72
2023/07/19 03:23:32;;;;;;;11.55;2.10;;;;;;;;;;5086327;28;20051;-72
2023/07/19 03:26:03;;;;;;;5.05;1.75;;;;;;;;;;5085717;28;20055;-72
2023/07/19 03:28:34;;;;;;;3.00;1.50;;;;;;;;;;5085983;28;20490;-73
2023/07/19 03:31:04;;;;;;;3.83;1.35;;;;;;;;;;5086042;28;20044;-73
2023/07/19 03:33:35;;;;;;;2.72;1.23;;;;;;;;;;5085686;28;20318;-73
2023/07/19 03:36:06;;;;;;;2.08;1.30;;;;;;;;;;5085967;28;20044;-72
2023/07/19 03:38:37;;;;;;;5.57;1.55;;;;;;;;;;5083966;28;20071;-72
2023/07/19 03:41:09;;;;;;;4.18;1.40;;;;;;;;;;5084033;28;20047;-72
2023/07/19 03:43:40;;;;;;;3.85;1.10;;;;;;;;;;5083552;28;20068;-72
2023/07/19 03:46:11;;;;;;;2.00;0.85;;;;;;;;;;5085722;28;20510;-72
2023/07/19 03:48:44;;;;;;;6.88;1.30;;;;;;;;;;5084329;28;20048;-72
2023/07/19 03:51:14;;;;;;;2.88;1.30;;;;;;;;;;5084392;28;20501;-72
2023/07/19 03:53:46;;;;;;;1.60;0.75;;;;;;;;;;5083863;28;20417;-72
2023/07/19 03:56:18;;;;;;;1.85;0.70;;;;;;;;;;5083058;28;20056;-73
2023/07/19 03:58:49;;;;;;;5.18;0.80;;;;;;;;;;5085318;28;20044;-72
2023/07/19 04:01:20;;;;;;;3.42;0.82;;;;;;;;;;5084086;28;20055;-72
2023/07/19 04:03:51;;;;;;;5.45;0.50;;;;;;;;;;5083332;28;20052;-73
2023/07/19 04:06:21;;;;;;;2.17;0.47;;;;;;;;;;5085260;28;20044;-72
2023/07/19 04:08:53;;;;;;;3.25;1.00;;;;;;;;;;5085057;28;20051;-72
2023/07/19 04:11:23;;;;;;;4.43;0.50;;;;;;;;;;5085182;28;20036;-73
2023/07/19 04:13:54;;;;;;;5.68;1.10;;;;;;;;;;5083029;28;20051;-73
2023/07/19 04:16:24;;;;;;;;;;;;;;;;;;5083383;28;20441;-72
2023/07/19 04:18:55;;;;;;;3.10;0.50;;;;;;;;;;5082778;28;19931;-72
2023/07/19 04:21:26;;;;;;;5.82;0.40;;;;;;;;;;5083583;28;20548;-72
2023/07/19 04:23:56;;;;;;;2.40;0.40;;;;;;;;;;5085562;28;20102;-73
2023/07/19 04:26:28;;;;;;;3.42;0.60;;;;;;;;;;5082756;28;20410;-72
2023/07/19 04:28:59;;;;;;;2.78;0.60;;;;;;;;;;5083594;28;20417;-72
2023/07/19 04:31:29;;;;;;;3.75;0.50;;;;;;;;;;5082729;28;20044;-72
2023/07/19 04:33:59;;;;;;;1.10;0.40;;;;;;;;;;5084594;28;20058;-72
2023/07/19 04:36:30;;;;;;;5.95;0.52;;;;;;;;;;5084998;28;20044;-72
2023/07/19 04:39:02;;;;;;;3.60;0.60;;;;;;;;;;5085153;28;20044;-72
2023/07/19 04:41:33;;;;;;;3.40;0.60;;;;;;;;;;5083275;28;20063;-72
2023/07/19 04:44:03;;;;;;;8.63;0.80;;;;;;;;;;5083216;28;20138;-72
2023/07/19 04:46:33;;;;;;;;;;;;;;;;;;5083852;28;20052;-72
2023/07/19 04:49:04;;;;;;;0.93;0.40;;;;;;;;;;5084816;28;19924;-72
2023/07/19 04:51:35;;;;;;;2.83;0.77;;;;;;;;;;5082775;28;20391;-72
2023/07/19 04:54:05;;;;;;;3.58;0.70;;;;;;;;;;5084906;28;20056;-73
2023/07/19 04:56:36;;;;;;;5.55;0.90;;;;;;;;;;5083415;28;20067;-72
2023/07/19 04:59:08;;;;;;;2.42;0.93;;;;;;;;;;5083289;28;20059;-72
2023/07/19 05:01:39;;;;;;;2.58;1.00;;;;;;;;;;5082104;28;20055;-73
2023/07/19 05:04:09;;;;;;;4.43;0.90;;;;;;;;;;5082559;28;20075;-73
2023/07/19 05:06:40;;;;;;;4.47;0.90;;;;;;;;;;5082574;28;20048;-72
2023/07/19 05:09:12;;;;;;;1.85;0.90;;;;;;;;;;5082608;28;20044;-72
2023/07/19 05:11:42;;;;;;;2.85;0.73;;;;;;;;;;5083859;28;20048;-72
2023/07/19 05:14:12;;;;;;;;;;;;;;;;;;5083521;28;20058;-72
2023/07/19 05:16:42;;;;;;;2.75;0.60;;;;;;;;;;5082665;28;20397;-72
2023/07/19 05:19:12;;;;;;;1.85;0.52;;;;;;;;;;5082414;28;20048;-72
2023/07/19 05:21:44;;;;;;;1.33;0.40;;;;;;;;;;5081994;28;20052;-73
2023/07/19 05:24:21;;;;;;;5.70;0.80;;;;;;;;;;5082724;28;20545;-73
2023/07/19 05:26:52;;;;;;;1.35;0.65;;;;;;;;;;5082280;28;20056;-73
2023/07/19 05:29:23;;;;;;;2.65;0.80;;;;;;;;;;5082913;28;20502;-73
2023/07/19 05:31:55;;;;;;;4.68;0.70;;;;;;;;;;5086120;28;20048;-72
2023/07/19 05:34:25;;;;;;;2.28;0.40;;;;;;;;;;5087740;28;20067;-72
2023/07/19 05:36:55;;;;;;;1.88;0.60;;;;;;;;;;5087788;28;20059;-72
2023/07/19 05:39:26;;;;;;;4.20;0.80;;;;;;;;;;5087755;28;20052;-72
2023/07/19 05:41:58;;;;;;;4.38;0.65;;;;;;;;;;5088091;28;20052;-72
2023/07/19 05:44:29;;;;;;;1.83;0.70;;;;;;;;;;5087915;28;20393;-72
2023/07/19 05:46:59;;;;;;;6.00;0.70;;;;;;;;;;5088139;28;20055;-72
2023/07/19 05:49:29;;;;;;;2.80;0.40;;;;;;;;;;5086583;28;20040;-72
2023/07/19 05:52:00;;;;;;;1.88;0.63;;;;;;;;;;5087854;28;20036;-72
2023/07/19 05:54:32;;;;;;;1.92;0.40;;;;;;;;;;5087582;28;20059;-72
2023/07/19 05:57:02;;;;;;;3.90;0.65;;;;;;;;;;5087752;28;20510;-72
2023/07/19 05:59:32;;;;;;;2.88;0.45;;;;;;;;;;5088164;28;20052;-72
2023/07/19 06:02:05;;;;;;;6.03;0.73;;;;;;;;;;5087964;28;20047;-72
2023/07/19 06:04:36;;;;;;;2.42;0.38;;;;;;;;;;5087851;28;20063;-72
2023/07/19 06:07:08;;;;;;;1.02;0.40;;;;;;;;;;5087549;28;20408;-72
2023/07/19 06:09:39;;;;;;;1.45;0.32;;;;;;;;;;5087280;28;20048;-72
2023/07/19 06:12:10;;;;;;;1.58;0.50;;;;;;;;;;5088510;28;20636;-72
2023/07/19 06:14:41;;;;;;;2.28;0.50;;;;;;;;;;5086998;28;20048;-72
2023/07/19 06:17:12;;;;;;;3.78;0.32;;;;;;;;;;5087289;28;20048;-72
2023/07/19 06:19:43;;;;;;;5.80;0.60;;;;;;;;;;5085537;28;20048;-73
2023/07/19 06:22:12;;;;;;;4.75;0.50;;;;;;;;;;5086958;28;20048;-72
2023/07/19 06:24:42;;;;;;;;;;;;;;;;;;5087709;28;20058;-72
2023/07/19 06:27:16;;;;;;;0.73;0.38;;;;;;;;;;5087266;28;19924;-72
2023/07/19 06:29:47;;;;;;;2.92;0.38;;;;;;;;;;5086904;28;20052;-72
2023/07/19 06:32:17;;;;;;;4.35;0.57;;;;;;;;;;5086776;28;20114;-72
2023/07/19 06:34:47;;;;;;;3.88;0.65;;;;;;;;;;5085295;28;20054;-73
2023/07/19 06:37:18;;;;;;;2.15;0.60;;;;;;;;;;5086837;28;20040;-72
2023/07/19 06:39:49;;;;;;;;;;;;;;;;;;5087515;28;20051;-73
2023/07/19 06:42:19;;;;;;;6.93;0.63;;;;;;;;;;5086641;28;19943;-72
2023/07/19 06:44:50;;;;;;;2.25;0.38;;;;;;;;;;5087158;28;20055;-72
2023/07/19 06:47:20;;;;;;;4.43;0.47;;;;;;;;;;5086585;28;20414;-73
2023/07/19 06:49:50;;;;;;;4.75;0.73;;;;;;;;;;5086873;28;20047;-72
2023/07/19 06:52:20;;;;;;;2.00;0.30;;;;;;;;;;5086043;28;20043;-72
2023/07/19 06:54:52;;;;;;;1.75;0.43;;;;;;;;;;5086793;28;20398;-72
2023/07/19 06:57:22;;;;;;;2.78;0.60;;;;;;;;;;5086267;28;20786;-72
2023/07/19 06:59:53;;;;;;;4.07;0.75;;;;;;;;;;5086679;28;20047;-72
2023/07/19 07:02:24;;;;;;;1.38;0.52;;;;;;;;;;5087125;28;20044;-72
2023/07/19 07:04:55;;;;;;;4.00;0.50;;;;;;;;;;5086914;28;20489;-73
2023/07/19 07:07:25;;;;;;;2.20;0.50;;;;;;;;;;5085850;28;20044;-72
2023/07/19 07:09:57;;;;;;;4.82;0.60;;;;;;;;;;5085909;28;20044;-73
2023/07/19 07:12:29;;;;;;;3.78;0.75;;;;;;;;;;5086492;28;20494;-72
2023/07/19 07:14:59;;;;;;;5.68;0.60;;;;;;;;;;5085887;28;20059;-73
2023/07/19 07:17:30;;;;;;;3.53;0.50;;;;;;;;;;5086488;28;20044;-72
2023/07/19 07:20:02;;;;;;;3.00;0.80;;;;;;;;;;5086211;28;20052;-73
2023/07/19 07:22:33;;;;;;;4.40;1.27;;;;;;;;;;5085676;28;20071;-73
2023/07/19 07:25:04;;;;;;;2.85;0.57;;;;;;;;;;5085970;28;20052;-72
2023/07/19 07:27:34;;;;;;;3.53;0.70;;;;;;;;;;5085831;28;20052;-73
2023/07/19 07:30:07;;;;;;;0.70;0.68;;;;;;;;;;5085977;28;20529;-72
2023/07/19 07:32:38;;;;;;;1.05;0.32;;;;;;;;;;5086312;28;20524;-73
2023/07/19 07:35:09;;;;;;;1.80;0.40;;;;;;;;;;5085678;28;20051;-73
2023/07/19 07:37:39;;;;;;;2.40;0.85;;;;;;;;;;5085683;28;20375;-73
2023/07/19 07:40:13;;;;;;;1.33;0.32;;;;;;;;;;5083821;28;20059;-73
2023/07/19 07:42:44;;;;;;;1.25;0.60;;;;;;;;;;5083720;28;20055;-73
2023/07/19 07:45:15;;;;;;;5.47;0.60;;;;;;;;;;5085594;28;20048;-73
2023/07/19 07:47:45;;;;;;;2.45;0.60;;;;;;;;;;5085751;28;20044;-72
2023/07/19 07:50:19;;;;;;;1.95;0.30;;;;;;;;;;5085718;28;20075;-72
2023/07/19 07:52:52;;;;;;;6.25;0.55;;;;;;;;;;5085699;28;20059;-72
2023/07/19 07:55:41;;;;;;;;;;;;;;;;;;5085396;28;20048;-72
2023/07/19 07:58:12;;;;;;;3.30;0.52;;;;;;;;;;5085112;28;19931;-72
2023/07/19 08:00:42;;;;;;;1.10;0.30;;;;;;;;;;5084330;28;20056;-72
2023/07/19 08:03:14;;;;;;;2.00;0.55;;;;;;;;;;5085569;28;20051;-72
2023/07/19 08:05:45;;;;;;;1.67;0.63;;;;;;;;;;5086106;28;20052;-72
2023/07/19 08:08:15;;;;;;;2.08;0.32;;;;;;;;;;5085028;28;20047;-72
2023/07/19 08:10:45;;;;;;;2.72;0.40;;;;;;;;;;5085022;28;20394;-72
2023/07/19 08:13:16;;;;;;;4.55;0.60;;;;;;;;;;5085245;28;20059;-72
2023/07/19 08:15:48;;;;;;;6.03;0.70;;;;;;;;;;5084773;28;20052;-72
2023/07/19 08:18:18;;;;;;;2.05;0.50;;;;;;;;;;5085092;28;20070;-72
2023/07/19 08:20:50;;;;;;;1.75;0.52;;;;;;;;;;5084668;28;20044;-72
2023/07/19 08:23:21;;;;;;;2.67;0.52;;;;;;;;;;5085563;28;20048;-73
2023/07/19 08:25:57;;;;;;;;;;;;;;;;;;5085479;28;20517;-72
2023/07/19 08:28:28;;;;;;;0.63;0.30;;;;;;;;;;5084904;28;19939;-72
2023/07/19 08:30:58;;;;;;;0.30;0.20;;;;;;;;;;5085052;28;20837;-72
2023/07/19 08:33:28;;;;;;;0.38;0.17;;;;;;;;;;5084927;28;20048;-73
2023/07/19 08:35:59;;;;;;;2.92;0.50;;;;;;;;;;5083947;28;20420;-73
2023/07/19 08:38:29;;;;;;;;;;;;;;;;;;5084766;28;20056;-72
2023/07/19 08:41:01;;;;;;;0.32;0.22;;;;;;;;;;5084738;28;19924;-73
2023/07/19 08:43:36;;;;;;;0.55;0.13;;;;;;;;;;5084741;28;20063;-73
2023/07/19 08:46:11;;;;;;;1.48;0.47;;;;;;;;;;5084529;28;20055;-73
2023/07/19 08:48:49;;;;;;;1.77;0.30;;;;;;;;;;5083383;28;20040;-73
2023/07/19 08:51:24;;;;;;;0.85;0.22;;;;;;;;;;5084956;28;20806;-73
2023/07/19 08:53:54;;;;;;;0.80;0.20;;;;;;;;;;5085131;28;20051;-75
2023/07/19 08:56:24;;;;;;;2.15;0.47;;;;;;;;;;5084474;28;20077;-73
2023/07/19 08:58:55;;;;;;;1.00;0.20;;;;;;;;;;5082076;28;20055;-73
2023/07/19 09:01:28;;;;;;;5.45;0.25;;;;;;;;;;5084403;28;20044;-74
2023/07/19 09:03:58;;;;;;;5.18;0.35;;;;;;;;;;5084757;28;20130;-75
2023/07/19 09:06:31;;;;;;;0.73;0.30;;;;;;;;;;5085760;28;20047;-73
2023/07/19 09:09:02;;;;;;;0.40;0.30;;;;;;;;;;5088908;28;20078;-72
2023/07/19 09:11:33;;;;;;;2.08;0.30;;;;;;;;;;5088875;28;20051;-73
2023/07/19 09:14:03;;;;;;;3.47;0.50;;;;;;;;;;5088702;28;20048;-72
2023/07/19 09:16:34;;;;;;;4.28;0.50;;;;;;;;;;5088612;28;20047;-73
2023/07/19 09:19:05;;;;;;;1.73;0.22;;;;;;;;;;5088062;28;20048;-73
2023/07/19 09:21:42;;;;;;;1.38;0.35;;;;;;;;;;5088436;28;20052;-72
2023/07/19 09:24:14;;;;;;;3.10;0.20;;;;;;;;;;5088478;28;20044;-73
2023/07/19 09:26:53;;;;;;;1.65;0.32;;;;;;;;;;5087044;28;20063;-73
2023/07/19 09:29:28;;;;;;;4.40;0.60;;;;;;;;;;5088299;28;20391;-74
2023/07/19 09:32:02;;;;;;;2.58;0.60;;;;;;;;;;5088177;28;20063;-73
2023/07/19 09:34:38;;;;;;;4.70;0.65;;;;;;;;;;5087929;28;20052;-73
2023/07/19 09:37:10;;;;;;;6.43;0.50;;;;;;;;;;5088187;28;20060;-73
2023/07/19 09:39:42;;;;;;;7.05;0.22;;;;;;;;;;5088650;28;20051;-73
2023/07/19 09:42:17;;;;;;;4.68;0.50;;;;;;;;;;5088024;28;20063;-73
2023/07/19 09:44:48;;;;;;;4.40;0.45;;;;;;;;;;5088649;28;20052;-73
2023/07/19 09:47:19;;;;;;;9.35;0.77;;;;;;;;;;5087725;28;20036;-73
2023/07/19 09:49:59;;;;;;;5.95;0.50;;;;;;;;;;5087951;28;20878;-73
2023/07/19 09:52:31;;;;;;;2.55;0.40;;;;;;;;;;5087736;28;21205;-74
2023/07/19 09:55:04;;;;;;;6.70;0.60;;;;;;;;;;5087903;28;20044;-74
2023/07/19 09:57:39;;;;;;;1.02;0.52;;;;;;;;;;5087643;28;20054;-76
2023/07/19 10:00:17;;;;;;;4.78;0.50;;;;;;;;;;5088198;28;20490;-73
2023/07/19 10:02:47;;;;;;;7.18;0.60;;;;;;;;;;5087889;28;20048;-73
2023/07/19 10:05:28;;;;;;;4.50;0.70;;;;;;;;;;5087664;28;20048;-73
2023/07/19 10:08:04;;;;;;;3.08;0.30;;;;;;;;;;5087389;28;20055;-74
2023/07/19 10:10:42;;;;;;;2.35;0.32;;;;;;;;;;5087972;28;20052;-73
2023/07/19 10:13:14;;;;;;;0.88;0.25;;;;;;;;;;5087500;28;20071;-73
2023/07/19 10:15:53;;;;;;;6.03;0.60;;;;;;;;;;5085191;28;20056;-73
2023/07/19 10:18:24;;;;;;;0.50;0.20;;;;;;;;;;5087079;28;20044;-73
2023/07/19 10:21:06;;;;;;;3.33;0.43;;;;;;;;;;5087556;28;20063;-72
2023/07/19 10:23:36;;;;;;;4.65;0.43;;;;;;;;;;5087380;28;20059;-73
2023/07/19 10:26:09;;;;;;;0.98;0.47;;;;;;;;;;5087023;28;20152;-74
2023/07/19 10:28:40;;;;;;;1.63;0.38;;;;;;;;;;5087370;28;20047;-72
2023/07/19 10:31:12;;;;;;;3.30;0.50;;;;;;;;;;5087123;28;20503;-75
2023/07/19 10:33:57;;;;;;;3.38;0.40;;;;;;;;;;5087226;28;20051;-74
2023/07/19 10:36:28;;;;;;;2.72;0.82;;;;;;;;;;5086691;28;20518;-73
2023/07/19 10:38:58;;;;;;;2.25;0.70;;;;;;;;;;5086787;28;20473;-80
2023/07/19 10:41:29;;;;;;;1.50;0.60;;;;;;;;;;5086825;28;20058;-73
2023/07/19 10:44:00;;;;;;;3.00;0.60;;;;;;;;;;5087213;28;20059;-73
2023/07/19 10:46:35;;;;;;;0.95;0.40;;;;;;;;;;5087223;28;20056;-73
2023/07/19 10:49:07;;;;;;;1.55;0.43;;;;;;;;;;5086804;28;20048;-76
2023/07/19 10:51:38;;;;;;;1.63;0.43;;;;;;;;;;5087212;28;20071;-73
2023/07/19 10:54:09;;;;;;;5.07;0.40;;;;;;;;;;5102021;28;20044;-73
2023/07/19 10:56:39;;;;;;;1.75;0.45;;;;;;;;;;5086529;28;20074;-73
2023/07/19 10:59:10;;;;;;;5.18;0.75;;;;;;;;;;5086720;28;20048;-73
2023/07/19 11:01:41;;;;;;;5.85;0.43;;;;;;;;;;5086619;28;20418;-73
2023/07/19 11:04:13;;;;;;;5.90;0.63;;;;;;;;;;5086457;28;20051;-73
2023/07/19 11:06:56;;;;;;;6.63;0.50;;;;;;;;;;5086927;28;20854;-74
2023/07/19 11:09:30;;;;;;;4.78;0.60;;;;;;;;;;5086183;28;20399;-73
2023/07/19 11:12:02;;;;;;;6.13;0.95;;;;;;;;;;5086203;28;20052;-73
2023/07/19 11:14:36;;;;;;;3.65;0.90;;;;;;;;;;5086524;28;20055;-74
2023/07/19 11:17:07;;;;;;;5.05;0.80;;;;;;;;;;5086694;28;20058;-73
2023/07/19 11:19:40;;;;;;;;;;;;;;;;;;5084937;28;20063;-74
2023/07/19 11:22:11;;;;;;;4.07;0.80;;;;;;;;;;5085892;28;19923;-73
2023/07/19 11:24:46;;;;;;;7.28;1.05;;;;;;;;;;5086307;28;20044;-74
2023/07/19 11:27:18;;;;;;;4.50;0.82;;;;;;;;;;5101009;28;20052;-73
2023/07/19 11:29:50;;;;;;;4.00;0.80;;;;;;;;;;5085240;28;20036;-74
2023/07/19 11:32:23;;;;;;;4.03;0.45;;;;;;;;;;5085789;28;20044;-74
2023/07/19 11:34:59;;;;;;;3.97;0.68;;;;;;;;;;5085960;28;20048;-74
2023/07/19 11:37:35;;;;;;;6.53;0.88;;;;;;;;;;5086007;28;20048;-78
2023/07/19 11:40:06;;;;;;;3.33;0.60;;;;;;;;;;5085786;28;20434;-75
2023/07/19 11:42:49;;;;;;;2.72;0.70;;;;;;;;;;5085909;28;20048;-74
2023/07/19 11:45:25;;;;;;;1.55;0.50;;;;;;;;;;5085420;28;20055;-73
2023/07/19 11:48:02;;;;;;;8.98;0.90;;;;;;;;;;5085223;28;20052;-74
2023/07/19 11:50:33;;;;;;;6.85;0.77;;;;;;;;;;5085773;28;20036;-74
2023/07/19 11:53:04;;;;;;;1.20;0.50;;;;;;;;;;5085981;28;20529;-74
2023/07/19 11:55:36;;;;;;;1.70;0.50;;;;;;;;;;5085963;28;20411;-77
2023/07/19 11:58:07;;;;;;;4.97;0.43;;;;;;;;;;5083175;28;20056;-74
2023/07/19 12:00:38;;;;;;;2.33;0.85;;;;;;;;;;5085384;28;20051;-76
2023/07/19 12:03:19;;;;;;;4.35;0.70;;;;;;;;;;5085419;28;20790;-71
2023/07/19 12:05:51;;;;;;;8.90;1.90;;;;;;;;;;5085325;28;20047;-71
2023/07/19 12:08:28;;;;;;;15.80;1.60;;;;;;;;;;5085201;28;20070;-72
2023/07/19 12:11:01;;;;;;;15.88;3.30;;;;;;;;;;5085593;28;20544;-71
2023/07/19 12:13:33;;;;;;;8.65;0.90;;;;;;;;;;5085369;28;20073;-72
2023/07/19 12:16:05;;;;;;;7.00;1.30;;;;;;;;;;5084804;28;20526;-72
2023/07/19 12:18:36;;;;;;;3.95;0.80;;;;;;;;;;5085141;28;20047;-73
2023/07/19 12:21:06;;;;;;;7.75;0.98;;;;;;;;;;5082890;28;20056;-72
2023/07/19 12:23:37;;;;;;;8.05;1.00;;;;;;;;;;5084711;28;20055;-72
2023/07/19 12:26:10;;;;;;;12.95;1.02;;;;;;;;;;5084897;28;20040;-75
2023/07/19 12:28:42;;;;;;;34.78;2.28;;;;;;;;;;5084523;28;20058;-75
2023/07/19 12:31:12;;;;;;;6.93;0.90;;;;;;;;;;5083843;28;20048;-76
2023/07/19 12:33:42;;;;;;;7.47;0.82;;;;;;;;;;5084439;28;20499;-75
2023/07/19 12:36:15;;;;;;;11.77;1.13;;;;;;;;;;5083657;28;20048;-74
2023/07/19 12:38:47;;;;;;;6.28;1.38;;;;;;;;;;5099747;28;20043;-74
2023/07/19 12:41:18;;;;;;;14.07;1.83;;;;;;;;;;5089359;28;20059;-73
2023/07/19 12:43:49;;;;;;;7.72;1.42;;;;;;;;;;5091895;28;20052;-73
2023/07/19 12:46:21;;;;;;;11.27;1.33;;;;;;;;;;5106706;28;20422;-73
2023/07/19 12:48:53;;;;;;;22.67;2.22;;;;;;;;;;5091935;28;20051;-74
2023/07/19 12:51:26;;;;;;;11.73;1.92;;;;;;;;;;5091452;28;20082;-73
2023/07/19 12:53:57;;;;;;;16.05;1.95;;;;;;;;;;5090852;28;20063;-73
2023/07/19 12:56:29;;;;;;;64.50;4.95;;;;;;;;;;5089672;28;20649;-73
2023/07/19 12:58:59;;;;;;;4.85;0.80;;;;;;;;;;5092119;28;20051;-73
2023/07/19 13:01:30;;;;;;;5.90;1.98;;;;;;;;;;5106619;28;20051;-77
2023/07/19 13:04:02;;;;;;;6.90;1.52;;;;;;;;;;5090995;28;20048;-73
2023/07/19 13:06:36;;;;;;;13.75;4.43;;;;;;;;;;5091565;28;20055;-72
2023/07/19 13:09:07;;;;;;;33.63;2.60;;;;;;;;;;5091287;28;20078;-73
2023/07/19 13:11:42;;;;;;;5.57;0.75;;;;;;;;;;5091238;28;20067;-74
2023/07/19 13:14:13;;;;;;;2.72;0.90;;;;;;;;;;5091433;28;20070;-75
2023/07/19 13:16:44;;;;;;;2.78;0.52;;;;;;;;;;5089845;28;20059;-74
2023/07/19 13:19:16;;;;;;;6.97;0.90;;;;;;;;;;5091386;28;20074;-73
2023/07/19 13:21:46;;;;;;;8.77;0.88;;;;;;;;;;5106329;28;20044;-73
2023/07/19 13:24:17;;;;;;;5.15;0.73;;;;;;;;;;5091194;28;20036;-73
2023/07/19 13:26:48;;;;;;;5.57;0.60;;;;;;;;;;5091719;28;20506;-73
2023/07/19 13:29:19;;;;;;;11.40;0.90;;;;;;;;;;5091466;28;20044;-74
2023/07/19 13:31:50;;;;;;;2.75;0.35;;;;;;;;;;5091622;28;20055;-75
2023/07/19 13:34:19;;;;;;;4.13;0.60;;;;;;;;;;5092048;28;20051;-72
2023/07/19 13:36:51;;;;;;;13.98;1.20;;;;;;;;;;5092717;28;20051;-74
2023/07/19 13:39:24;;;;;;;6.88;1.08;;;;;;;;;;5091092;28;20047;-74
2023/07/19 13:41:54;;;;;;;4.80;0.70;;;;;;;;;;5106598;28;20048;-75
2023/07/19 13:44:29;;;;;;;2.65;0.50;;;;;;;;;;5092013;28;20055;-73
2023/07/19 13:47:00;;;;;;;3.40;0.80;;;;;;;;;;5091295;28;20043;-74
2023/07/19 13:49:31;;;;;;;2.95;0.55;;;;;;;;;;5091065;28;20481;-74
2023/07/19 13:52:01;;;;;;;8.52;0.60;;;;;;;;;;5087049;28;20056;-74
2023/07/19 13:54:31;;;;;;;9.13;0.80;;;;;;;;;;5087664;28;20059;-77
2023/07/19 13:57:02;;;;;;;7.07;0.73;;;;;;;;;;5087922;28;20048;-72
2023/07/19 13:59:33;;;;;;;10.60;1.60;;;;;;;;;;5087811;28;20044;-73
2023/07/19 14:02:06;;;;;;;6.43;0.73;;;;;;;;;;5088246;28;20048;-74
2023/07/19 14:04:38;;;;;;;20.00;1.63;;;;;;;;;;5087653;28;20525;-81
2023/07/19 14:07:08;;;;;;;42.15;2.92;;;;;;;;;;5088534;28;20415;-75
2023/07/19 14:09:42;;;;;;;5.10;0.60;;;;;;;;;;5103223;28;20036;-74
2023/07/19 14:12:16;;;;;;;6.05;0.60;;;;;;;;;;5087439;28;20052;-74
2023/07/19 14:14:48;;;;;;;2.08;0.60;;;;;;;;;;5087861;28;20052;-75
2023/07/19 14:17:20;;;;;;;6.53;0.65;;;;;;;;;;5087714;28;20051;-74
2023/07/19 14:19:52;;;;;;;18.50;2.00;;;;;;;;;;5088660;28;20055;-76
2023/07/19 14:22:22;;;;;;;7.95;0.73;;;;;;;;;;5089729;28;20051;-75
2023/07/19 14:24:53;;;;;;;8.02;2.63;;;;;;;;;;5089077;28;20503;-74
2023/07/19 14:27:23;;;;;;;5.18;0.88;;;;;;;;;;5088395;28;20047;-75
2023/07/19 14:29:54;;;;;;;24.60;1.52;;;;;;;;;;5089229;28;20048;-74
2023/07/19 14:32:25;;;;;;;59.67;3.50;;;;;;;;;;5087218;28;20044;-75
2023/07/19 14:35:01;;;;;;;65.60;4.20;;;;;;;;;;5086974;28;20052;-74
2023/07/19 14:37:31;;;;;;;3.58;1.20;;;;;;;;;;5102432;28;20055;-76
2023/07/19 14:40:02;;;;;;;5.57;0.80;;;;;;;;;;5086824;28;20051;-76
2023/07/19 14:42:33;;;;;;;5.00;0.73;;;;;;;;;;5085985;28;20063;-75
2023/07/19 14:45:06;;;;;;;3.13;0.95;;;;;;;;;;5088373;28;20422;-73
2023/07/19 14:47:37;;;;;;;4.25;0.60;;;;;;;;;;5087914;28;20054;-74
2023/07/19 14:50:08;;;;;;;5.97;1.00;;;;;;;;;;5087482;28;20044;-74
2023/07/19 14:52:41;;;;;;;5.22;2.00;;;;;;;;;;5086716;28;20059;-74
2023/07/19 14:55:13;;;;;;;3.40;0.50;;;;;;;;;;5086724;28;20521;-76
2023/07/19 14:57:44;;;;;;;4.07;0.50;;;;;;;;;;5086569;28;20044;-75
2023/07/19 15:00:15;;;;;;;4.63;0.70;;;;;;;;;;5086784;28;20059;-74
2023/07/19 15:02:47;;;;;;;3.38;0.50;;;;;;;;;;5084052;28;20052;-75
2023/07/19 15:05:28;;;;;;;6.18;0.93;;;;;;;;;;5087007;28;20059;-77
2023/07/19 15:07:59;;;;;;;4.18;0.60;;;;;;;;;;5085862;28;20052;-75
2023/07/19 15:10:30;;;;;;;5.32;0.50;;;;;;;;;;5084951;28;20056;-74
2023/07/19 15:13:01;;;;;;;2.13;0.63;;;;;;;;;;5086236;28;20643;-76